TRO weather

Taree Airport
Taree, New South Wales, Australia

Public forecast

Using degrees Celsius for public forecast. Weather courtesy of forecast.io.

METAR (pilot weather report)

Retrieved 2019/04/19 04:00 UTC (47 minutes ago):

YTRE 190400Z AUTO 13010KT 9999 // SCT021 23/18 Q1025

TAF (pilot weather forecast)

Forecast is more than 6 hours old.

Retrieved 2019/04/18 20:33 UTC (8 hours ago):

TAF YTRE 181902Z 1820/1908 22005KT 9999 -SHRA BKN030 FM190200 12008KT 9999 -SHRA SCT030 INTER 1820/1902 4000 SHRA BKN015